Time,TemperatureF,DewpointF,PressureIn,WindDirection,WindDirectionDegrees,WindSpeedMPH,WindSpeedGustMPH,Humidity,HourlyPrecipIn,Conditions,Clouds,dailyrainin,SoftwareType,DateUTC
2013-04-09 00:04:00,37.3,30.1,29.97,NE,34,3.0,9.0,75,0.00,OVC,OVC,0.00,WeatherDisplay:10.37,2013-04-09 04:04:00,
2013-04-09 00:09:00,37.4,30.2,29.97,ENE,75,2.0,6.0,75,0.00,OVC,OVC,0.00,WeatherDisplay:10.37,2013-04-09 04:09:00,
2013-04-09 00:14:00,36.9,31.3,29.96,NE,52,0.0,3.0,80,0.00,OVC,OVC,0.00,WeatherDisplay:10.37,2013-04-09 04:14:00,
2013-04-09 00:19:00,36.1,31.7,29.95,NE,51,1.0,4.0,84,0.01,RA,OVC,0.01,WeatherDisplay:10.37,2013-04-09 04:19:00,
2013-04-09 00:24:00,35.6,31.8,29.95,NE,51,0.0,3.0,86,0.00,RA,OVC,0.01,WeatherDisplay:10.37,2013-04-09 04:24:00,
2013-04-09 00:29:00,35.3,31.8,29.94,NE,41,2.0,9.0,87,0.00,OVC,OVC,0.01,WeatherDisplay:10.37,2013-04-09 04:29:00,
2013-04-09 00:34:00,35.3,32.1,29.93,NE,43,1.0,3.0,88,0.01,-RA,OVC,0.02,WeatherDisplay:10.37,2013-04-09 04:34:00,
2013-04-09 00:44:00,35.0,32.1,29.95,NE,38,1.0,4.0,89,0.01,-RA,OVC,0.02,WeatherDisplay:10.37,2013-04-09 04:44:00,
2013-04-09 00:49:00,34.9,32.3,29.94,NNE,20,2.0,4.0,90,0.01,-RA,OVC,0.03,WeatherDisplay:10.37,2013-04-09 04:49:00,
2013-04-09 00:54:00,34.9,32.2,29.95,NNE,23,1.0,6.0,90,0.00,-RA,OVC,0.03,WeatherDisplay:10.37,2013-04-09 04:54:00,
2013-04-09 00:59:00,34.8,32.2,29.95,NE,37,1.0,7.0,90,0.00,-RA,OVC,0.03,WeatherDisplay:10.37,2013-04-09 04:59:00,
2013-04-09 01:04:00,34.5,32.2,29.94,NNE,33,1.0,3.0,91,0.01,-RA,OVC,0.04,WeatherDisplay:10.37,2013-04-09 05:04:00,
2013-04-09 01:09:00,34.4,32.0,29.94,NNE,16,2.0,10.0,91,0.01,-RA,OVC,0.05,WeatherDisplay:10.37,2013-04-09 05:09:00,
2013-04-09 01:14:00,34.4,32.1,29.94,NNE,18,1.0,5.0,91,0.01,-RA,OVC,0.05,WeatherDisplay:10.37,2013-04-09 05:14:00,
2013-04-09 01:19:00,34.5,32.1,29.94,NNE,19,2.0,9.0,91,0.01,-RA,OVC,0.06,WeatherDisplay:10.37,2013-04-09 05:19:00,
2013-04-09 01:24:00,34.5,32.4,29.94,NNE,22,1.0,6.0,92,0.01,-RA,OVC,0.07,WeatherDisplay:10.37,2013-04-09 05:24:00,
2013-04-09 01:29:00,34.5,32.4,29.94,NNE,33,1.0,12.0,92,0.02,-RA,OVC,0.09,WeatherDisplay:10.37,2013-04-09 05:29:00,
2013-04-09 01:34:00,34.6,32.5,29.94,ENE,70,1.0,7.0,92,0.02,-RA,OVC,0.11,WeatherDisplay:10.37,2013-04-09 05:34:00,
2013-04-09 01:39:00,34.7,32.6,29.94,ENE,72,1.0,8.0,92,0.02,-RA,OVC,0.13,WeatherDisplay:10.37,2013-04-09 05:39:00,
2013-04-09 01:44:00,34.7,32.6,29.93,NE,47,1.0,3.0,92,0.01,-RA,OVC,0.13,WeatherDisplay:10.37,2013-04-09 05:44:00,
2013-04-09 01:54:00,34.6,32.8,29.93,NNE,28,1.0,3.0,93,0.02,-RA,OVC,0.16,WeatherDisplay:10.37,2013-04-09 05:54:00,
2013-04-09 01:59:00,34.6,32.8,29.92,NNE,27,1.0,2.0,93,0.02,-RA,OVC,0.17,WeatherDisplay:10.37,2013-04-09 05:59:00,
2013-04-09 02:04:00,34.6,32.8,29.91,NE,45,1.0,4.0,93,0.01,-RA,OVC,0.18,WeatherDisplay:10.37,2013-04-09 06:04:00,
2013-04-09 02:09:00,34.7,32.8,29.91,NE,54,1.0,3.0,93,0.01,-RA,OVC,0.19,WeatherDisplay:10.37,2013-04-09 06:09:00,
2013-04-09 02:14:00,34.8,33.2,29.90,ENE,59,1.0,9.0,94,0.00,-RA,OVC,0.19,WeatherDisplay:10.37,2013-04-09 06:14:00,
2013-04-09 02:19:00,34.9,33.1,29.89,NE,53,2.0,6.0,93,0.01,-RA,OVC,0.20,WeatherDisplay:10.37,2013-04-09 06:19:00,
2013-04-09 02:29:00,34.8,33.0,29.88,NE,55,2.0,3.0,93,0.00,-RA,OVC,0.20,WeatherDisplay:10.37,2013-04-09 06:29:00,
2013-04-09 02:39:00,34.9,33.1,29.87,NE,39,2.0,6.0,93,0.00,-RA,OVC,0.20,WeatherDisplay:10.37,2013-04-09 06:39:00,
2013-04-09 02:44:00,35.0,33.2,29.86,NE,48,2.0,6.0,93,0.01,-RA,OVC,0.20,WeatherDisplay:10.37,2013-04-09 06:44:00,
2013-04-09 02:49:00,35.0,33.2,29.86,NE,56,3.0,6.0,93,0.00,-RA,OVC,0.20,WeatherDisplay:10.37,2013-04-09 06:49:00,
2013-04-09 02:54:00,35.2,33.4,29.85,NE,56,2.0,7.0,93,0.00,-RA,OVC,0.20,WeatherDisplay:10.37,2013-04-09 06:54:00,
2013-04-09 02:59:00,35.2,33.4,29.85,NE,47,1.0,8.0,93,0.00,-RA,OVC,0.20,WeatherDisplay:10.37,2013-04-09 06:59:00,
2013-04-09 03:04:00,35.2,33.4,29.85,ENE,65,2.0,4.0,93,0.00,-RA,OVC,0.20,WeatherDisplay:10.37,2013-04-09 07:04:00,
2013-04-09 03:14:00,35.3,33.4,29.84,East,80,2.0,8.0,93,0.00,-RA,OVC,0.20,WeatherDisplay:10.37,2013-04-09 07:14:00,
2013-04-09 03:19:00,35.2,33.4,29.84,ENE,71,3.0,8.0,93,0.00,-RA,OVC,0.20,WeatherDisplay:10.37,2013-04-09 07:19:00,
2013-04-09 03:29:00,35.3,33.5,29.83,NE,56,2.0,8.0,93,0.01,-RA,OVC,0.21,WeatherDisplay:10.37,2013-04-09 07:29:00,
2013-04-09 03:34:00,35.2,33.4,29.83,NE,51,2.0,3.0,93,0.00,-RA,OVC,0.21,WeatherDisplay:10.37,2013-04-09 07:34:00,
2013-04-09 03:39:00,35.2,33.4,29.83,NE,44,1.0,6.0,93,0.01,-RA,OVC,0.22,WeatherDisplay:10.37,2013-04-09 07:39:00,
2013-04-09 03:44:00,35.1,33.3,29.83,NE,40,3.0,12.0,93,0.00,-RA,OVC,0.22,WeatherDisplay:10.37,2013-04-09 07:44:00,
2013-04-09 03:49:00,35.1,33.3,29.82,NE,38,3.0,6.0,93,0.00,-RA,OVC,0.22,WeatherDisplay:10.37,2013-04-09 07:49:00,
2013-04-09 03:54:00,35.1,33.3,29.82,ENE,58,2.0,5.0,93,0.00,-RA,OVC,0.22,WeatherDisplay:10.37,2013-04-09 07:54:00,
2013-04-09 03:59:00,35.1,33.3,29.82,ENE,57,3.0,8.0,93,0.00,-RA,OVC,0.22,WeatherDisplay:10.37,2013-04-09 07:59:00,
2013-04-09 04:04:00,35.1,33.3,29.83,ENE,67,1.0,6.0,93,0.00,-RA,OVC,0.22,WeatherDisplay:10.37,2013-04-09 08:04:00,
2013-04-09 04:09:00,35.0,33.2,29.83,ENE,70,2.0,7.0,93,0.01,-RA,OVC,0.23,WeatherDisplay:10.37,2013-04-09 08:09:00,
2013-04-09 04:14:00,35.1,33.3,29.82,ENE,57,2.0,7.0,93,0.00,-RA,OVC,0.23,WeatherDisplay:10.37,2013-04-09 08:14:00,
2013-04-09 04:24:00,35.0,33.2,29.81,ENE,69,3.0,7.0,93,0.00,-RA,OVC,0.23,WeatherDisplay:10.37,2013-04-09 08:24:00,
2013-04-09 04:29:00,35.0,33.2,29.81,ENE,67,2.0,8.0,93,0.00,-RA,OVC,0.23,WeatherDisplay:10.37,2013-04-09 08:29:00,
2013-04-09 04:39:00,34.9,33.1,29.80,NE,56,5.0,8.0,93,0.00,-RA,OVC,0.23,WeatherDisplay:10.37,2013-04-09 08:39:00,
2013-04-09 04:44:00,34.9,33.1,29.80,ENE,57,2.0,12.0,93,0.00,-RA,OVC,0.23,WeatherDisplay:10.37,2013-04-09 08:44:00,
2013-04-09 04:49:00,34.9,33.1,29.80,NE,45,2.0,12.0,93,0.00,-RA,OVC,0.23,WeatherDisplay:10.37,2013-04-09 08:49:00,
2013-04-09 04:54:00,34.8,33.0,29.80,NE,55,2.0,7.0,93,0.00,-RA,OVC,0.23,WeatherDisplay:10.37,2013-04-09 08:54:00,
2013-04-09 04:59:00,34.7,33.2,29.80,ENE,67,2.0,8.0,94,0.00,-RA,OVC,0.23,WeatherDisplay:10.37,2013-04-09 08:59:00,
2013-04-09 05:04:00,34.7,33.2,29.80,NE,56,2.0,5.0,94,0.00,-RA,OVC,0.23,WeatherDisplay:10.37,2013-04-09 09:04:00,
2013-04-09 05:09:00,34.7,33.2,29.80,NE,53,1.0,7.0,94,0.02,-RA,OVC,0.25,WeatherDisplay:10.37,2013-04-09 09:09:00,
2013-04-09 05:14:00,34.7,33.2,29.80,NE,39,2.0,10.0,94,0.02,-RA,OVC,0.27,WeatherDisplay:10.37,2013-04-09 09:14:00,
2013-04-09 05:19:00,34.6,33.1,29.80,NE,50,2.0,7.0,94,0.00,-RA,OVC,0.27,WeatherDisplay:10.37,2013-04-09 09:19:00,
2013-04-09 05:24:00,34.6,33.1,29.80,NE,50,2.0,10.0,94,0.00,-RA,OVC,0.27,WeatherDisplay:10.37,2013-04-09 09:24:00,
2013-04-09 05:29:00,34.6,33.1,29.80,NE,54,2.0,12.0,94,0.01,-RA,OVC,0.28,WeatherDisplay:10.37,2013-04-09 09:29:00,
2013-04-09 05:34:00,34.6,33.0,29.80,NE,48,2.0,7.0,94,0.00,-RA,OVC,0.28,WeatherDisplay:10.37,2013-04-09 09:34:00,
2013-04-09 05:39:00,34.6,33.1,29.80,NE,46,1.0,7.0,94,0.00,-RA,OVC,0.28,WeatherDisplay:10.37,2013-04-09 09:39:00,
2013-04-09 05:44:00,34.6,33.1,29.81,NE,37,2.0,8.0,94,0.00,-RA,OVC,0.28,WeatherDisplay:10.37,2013-04-09 09:44:00,
2013-04-09 05:49:00,34.6,33.1,29.81,ENE,68,2.0,9.0,94,0.00,-RA,OVC,0.28,WeatherDisplay:10.37,2013-04-09 09:49:00,
2013-04-09 05:54:00,34.6,33.1,29.81,ENE,57,2.0,8.0,94,0.01,-RA,OVC,0.28,WeatherDisplay:10.37,2013-04-09 09:54:00,
2013-04-09 06:04:00,34.6,33.1,29.81,NE,50,2.0,8.0,94,0.01,-RA,OVC,0.29,WeatherDisplay:10.37,2013-04-09 10:04:00,
2013-04-09 06:09:00,34.7,33.4,29.82,NNE,24,1.0,5.0,95,0.00,-RA,OVC,0.29,WeatherDisplay:10.37,2013-04-09 10:09:00,
2013-04-09 06:14:00,34.7,33.4,29.82,North,4,1.0,4.0,95,0.00,-RA,OVC,0.29,WeatherDisplay:10.37,2013-04-09 10:14:00,
2013-04-09 06:19:00,34.8,33.5,29.82,NNE,25,3.0,8.0,95,0.01,-RA,OVC,0.30,WeatherDisplay:10.37,2013-04-09 10:19:00,
2013-04-09 06:24:00,34.8,33.5,29.82,NNE,20,2.0,7.0,95,0.00,-RA,OVC,0.30,WeatherDisplay:10.37,2013-04-09 10:24:00,
2013-04-09 06:29:00,34.9,33.6,29.83,NNE,21,2.0,10.0,95,0.00,-RA,OVC,0.30,WeatherDisplay:10.37,2013-04-09 10:29:00,
2013-04-09 06:39:00,34.9,33.6,29.83,North,4,2.0,5.0,95,0.00,-RA,OVC,0.30,WeatherDisplay:10.37,2013-04-09 10:39:00,
2013-04-09 06:44:00,34.9,33.6,29.83,North,8,2.0,8.0,95,0.00,-RA,OVC,0.30,WeatherDisplay:10.37,2013-04-09 10:44:00,
2013-04-09 06:54:00,35.1,33.8,29.84,North,6,3.0,10.0,95,0.00,-RA,OVC,0.30,WeatherDisplay:10.37,2013-04-09 10:54:00,
2013-04-09 07:04:00,35.2,33.7,29.85,NNE,24,3.0,8.0,94,0.00,-RA,OVC,0.30,WeatherDisplay:10.37,2013-04-09 11:04:00,
2013-04-09 07:09:00,35.3,34.0,29.86,North,358,5.0,10.0,95,0.00,-RA,OVC,0.30,WeatherDisplay:10.37,2013-04-09 11:09:00,
2013-04-09 07:14:00,35.4,33.8,29.86,North,1,3.0,6.0,94,0.00,-RA,OVC,0.30,WeatherDisplay:10.37,2013-04-09 11:14:00,
2013-04-09 07:19:00,35.4,33.8,29.86,NNE,16,2.0,7.0,94,0.00,-RA,OVC,0.30,WeatherDisplay:10.37,2013-04-09 11:19:00,
2013-04-09 07:24:00,35.5,33.9,29.86,NNE,25,2.0,7.0,94,0.00,-RA,OVC,0.30,WeatherDisplay:10.37,2013-04-09 11:24:00,
2013-04-09 07:29:00,35.6,34.0,29.85,NNE,25,2.0,6.0,94,0.00,-RA,OVC,0.30,WeatherDisplay:10.37,2013-04-09 11:29:00,
2013-04-09 07:34:00,35.7,34.1,29.86,NNE,24,2.0,8.0,94,0.01,-RA,OVC,0.31,WeatherDisplay:10.37,2013-04-09 11:34:00,
2013-04-09 07:39:00,35.8,34.2,29.86,NNE,14,2.0,8.0,94,0.00,-RA,OVC,0.31,WeatherDisplay:10.37,2013-04-09 11:39:00,
2013-04-09 07:44:00,35.9,34.6,29.87,North,5,3.0,8.0,95,0.00,-RA,OVC,0.31,WeatherDisplay:10.37,2013-04-09 11:44:00,
2013-04-09 07:54:00,36.0,34.7,29.88,North,10,2.0,6.0,95,0.00,-RA,OVC,0.31,WeatherDisplay:10.37,2013-04-09 11:54:00,
2013-04-09 07:59:00,36.1,34.5,29.88,North,10,1.0,8.0,94,0.00,-RA,OVC,0.31,WeatherDisplay:10.37,2013-04-09 11:59:00,
2013-04-09 08:04:00,36.2,34.6,29.89,North,2,1.0,6.0,94,0.00,-RA,OVC,0.31,WeatherDisplay:10.37,2013-04-09 12:04:00,
2013-04-09 08:09:00,36.3,34.7,29.89,North,359,2.0,5.0,94,0.00,-RA,OVC,0.31,WeatherDisplay:10.37,2013-04-09 12:09:00,
2013-04-09 08:14:00,36.4,34.8,29.89,NNW,345,2.0,4.0,94,0.00,-RA,OVC,0.31,WeatherDisplay:10.37,2013-04-09 12:14:00,
2013-04-09 08:19:00,36.5,35.2,29.90,NNW,346,2.0,4.0,95,0.00,-RA,OVC,0.31,WeatherDisplay:10.37,2013-04-09 12:19:00,
2013-04-09 08:24:00,36.7,35.4,29.90,NNW,342,1.0,4.0,95,0.00,-RA,OVC,0.31,WeatherDisplay:10.37,2013-04-09 12:24:00,
2013-04-09 08:34:00,37.1,35.5,29.90,NNW,340,0.0,3.0,94,0.00,-RA,OVC,0.31,WeatherDisplay:10.37,2013-04-09 12:34:00,
2013-04-09 08:39:00,37.3,35.7,29.91,NNW,341,1.0,3.0,94,0.00,-RA,OVC,0.31,WeatherDisplay:10.37,2013-04-09 12:39:00,
2013-04-09 08:54:00,37.9,36.4,29.91,North,349,1.0,5.0,94,0.00,-RA,OVC,0.31,WeatherDisplay:10.37,2013-04-09 12:54:00,
2013-04-09 09:04:00,38.4,36.3,29.92,NNW,344,1.0,4.0,92,0.00,-RA,OVC,0.31,WeatherDisplay:10.37,2013-04-09 13:04:00,
2013-04-09 09:09:00,38.6,36.5,29.92,NNW,339,2.0,7.0,92,0.00,-RA,OVC,0.31,WeatherDisplay:10.37,2013-04-09 13:09:00,
2013-04-09 09:14:00,38.8,36.7,29.92,NNW,339,2.0,5.0,92,0.00,OVC,OVC,0.31,WeatherDisplay:10.37,2013-04-09 13:14:00,
2013-04-09 09:19:00,39.1,37.0,29.92,North,349,2.0,5.0,92,0.00,OVC,OVC,0.31,WeatherDisplay:10.37,2013-04-09 13:19:00,
2013-04-09 09:24:00,39.4,37.2,29.92,North,358,1.0,7.0,92,0.00,OVC,OVC,0.31,WeatherDisplay:10.37,2013-04-09 13:24:00,
2013-04-09 09:29:00,39.7,37.6,29.92,North,353,1.0,4.0,92,0.00,OVC,OVC,0.31,WeatherDisplay:10.37,2013-04-09 13:29:00,
2013-04-09 09:34:00,39.8,37.4,29.92,North,349,0.0,5.0,91,0.00,OVC,OVC,0.31,WeatherDisplay:10.37,2013-04-09 13:34:00,
2013-04-09 09:39:00,40.0,37.3,29.92,North,354,2.0,7.0,90,0.00,OVC,OVC,0.31,WeatherDisplay:10.37,2013-04-09 13:39:00,
2013-04-09 09:44:00,40.0,37.0,29.92,North,353,1.0,5.0,89,0.00,OVC,OVC,0.31,WeatherDisplay:10.37,2013-04-09 13:44:00,
2013-04-09 09:49:00,40.2,37.2,29.92,NNW,345,1.0,3.0,89,0.00,OVC,OVC,0.31,WeatherDisplay:10.37,2013-04-09 13:49:00,
2013-04-09 09:54:00,40.6,37.6,29.91,North,351,1.0,4.0,89,0.00,OVC,OVC,0.31,WeatherDisplay:10.37,2013-04-09 13:54:00,
2013-04-09 09:59:00,40.8,37.5,29.92,NNW,343,1.0,5.0,88,0.00,OVC,OVC,0.31,WeatherDisplay:10.37,2013-04-09 13:59:00,
2013-04-09 10:04:00,40.9,37.3,29.93,North,354,2.0,4.0,87,0.00,OVC,OVC,0.31,WeatherDisplay:10.37,2013-04-09 14:04:00,
2013-04-09 10:09:00,41.1,37.5,29.93,North,3,1.0,4.0,87,0.00,OVC,OVC,0.31,WeatherDisplay:10.37,2013-04-09 14:09:00,
2013-04-09 10:14:00,41.4,37.5,29.94,NW,323,2.0,4.0,86,0.00,OVC,OVC,0.31,WeatherDisplay:10.37,2013-04-09 14:14:00,
2013-04-09 10:24:00,41.5,37.6,29.95,NW,320,0.0,0.0,86,0.00,OVC,OVC,0.31,WeatherDisplay:10.37,2013-04-09 14:24:00,
2013-04-09 10:29:00,41.7,38.1,29.95,NW,320,0.0,1.0,87,0.00,OVC,OVC,0.31,WeatherDisplay:10.37,2013-04-09 14:29:00,
2013-04-09 10:39:00,42.3,37.8,29.95,NW,320,0.0,1.0,84,0.00,OVC,OVC,0.31,WeatherDisplay:10.37,2013-04-09 14:39:00,
2013-04-09 10:44:00,42.4,37.6,29.95,NW,320,0.0,2.0,83,0.00,OVC,OVC,0.31,WeatherDisplay:10.37,2013-04-09 14:44:00,
2013-04-09 10:49:00,42.6,37.5,29.97,NW,316,1.0,3.0,82,0.00,OVC,OVC,0.31,WeatherDisplay:10.37,2013-04-09 14:49:00,
2013-04-09 10:54:00,42.6,37.5,29.97,WNW,303,0.0,3.0,82,0.00,OVC,OVC,0.31,WeatherDisplay:10.37,2013-04-09 14:54:00,
2013-04-09 10:59:00,42.4,37.9,29.97,WSW,258,1.0,3.0,84,0.00,OVC,OVC,0.31,WeatherDisplay:10.37,2013-04-09 14:59:00,
2013-04-09 11:04:00,42.0,37.9,29.96,SW,225,3.0,7.0,85,0.00,OVC,OVC,0.31,WeatherDisplay:10.37,2013-04-09 15:04:00,
2013-04-09 11:09:00,41.4,37.8,29.97,SW,222,2.0,5.0,87,0.00,OVC,OVC,0.31,WeatherDisplay:10.37,2013-04-09 15:09:00,
2013-04-09 11:19:00,41.3,38.0,29.99,SW,226,2.0,6.0,88,0.00,OVC,OVC,0.31,WeatherDisplay:10.37,2013-04-09 15:19:00,
2013-04-09 11:24:00,41.2,37.9,29.99,SW,230,1.0,3.0,88,0.00,OVC,OVC,0.31,WeatherDisplay:10.37,2013-04-09 15:24:00,
2013-04-09 11:29:00,41.4,38.2,29.99,WSW,241,1.0,4.0,88,0.00,OVC,OVC,0.31,WeatherDisplay:10.37,2013-04-09 15:29:00,
2013-04-09 11:39:00,41.5,38.2,29.99,SW,236,2.0,5.0,88,0.00,OVC,OVC,0.31,WeatherDisplay:10.37,2013-04-09 15:39:00,
2013-04-09 11:44:00,42.1,38.8,29.99,WSW,242,1.0,6.0,88,0.00,OVC,OVC,0.31,WeatherDisplay:10.37,2013-04-09 15:44:00,
2013-04-09 11:49:00,42.6,39.0,29.99,SW,231,1.0,4.0,87,0.00,OVC,OVC,0.31,WeatherDisplay:10.37,2013-04-09 15:49:00,
2013-04-09 11:54:00,42.9,39.0,29.99,SW,225,2.0,5.0,86,0.00,OVC,OVC,0.31,WeatherDisplay:10.37,2013-04-09 15:54:00,
2013-04-09 11:59:00,43.0,39.1,29.99,SW,219,5.0,8.0,86,0.00,OVC,OVC,0.31,WeatherDisplay:10.37,2013-04-09 15:59:00,
2013-04-09 12:04:00,43.2,39.0,30.00,SW,216,3.0,9.0,85,0.00,OVC,OVC,0.31,WeatherDisplay:10.37,2013-04-09 16:04:00,
2013-04-09 12:14:00,44.0,39.4,30.00,SW,214,3.0,7.0,84,0.00,OVC,OVC,0.31,WeatherDisplay:10.37,2013-04-09 16:14:00,
2013-04-09 12:19:00,44.2,39.7,30.00,SW,234,2.0,6.0,84,0.00,OVC,OVC,0.31,WeatherDisplay:10.37,2013-04-09 16:19:00,
2013-04-09 12:24:00,44.6,39.7,30.01,SW,235,2.0,5.0,83,0.00,OVC,OVC,0.31,WeatherDisplay:10.37,2013-04-09 16:24:00,
2013-04-09 12:29:00,44.6,39.5,30.01,SW,231,3.0,9.0,82,0.00,OVC,OVC,0.31,WeatherDisplay:10.37,2013-04-09 16:29:00,
2013-04-09 12:34:00,44.1,39.0,30.01,SW,224,3.0,9.0,82,0.00,OVC,OVC,0.31,WeatherDisplay:10.37,2013-04-09 16:34:00,
2013-04-09 12:39:00,44.1,39.0,30.01,SW,235,3.0,8.0,82,0.00,OVC,OVC,0.31,WeatherDisplay:10.37,2013-04-09 16:39:00,
2013-04-09 12:44:00,44.3,38.9,30.01,SW,232,3.0,8.0,81,0.00,OVC,OVC,0.31,WeatherDisplay:10.37,2013-04-09 16:44:00,
2013-04-09 12:54:00,45.2,39.4,30.00,WSW,244,2.0,7.0,80,0.00,OVC,OVC,0.31,WeatherDisplay:10.37,2013-04-09 16:54:00,
2013-04-09 13:04:00,45.7,39.2,30.00,West,261,5.0,7.0,78,0.00,OVC,OVC,0.31,WeatherDisplay:10.37,2013-04-09 17:04:00,
2013-04-09 13:09:00,45.9,39.1,30.00,WSW,258,2.0,9.0,77,0.00,OVC,OVC,0.31,WeatherDisplay:10.37,2013-04-09 17:09:00,
2013-04-09 13:14:00,46.0,39.2,30.00,SW,224,3.0,9.0,77,0.00,OVC,OVC,0.31,WeatherDisplay:10.37,2013-04-09 17:14:00,
2013-04-09 13:19:00,46.4,39.2,30.00,SW,215,5.0,7.0,76,0.00,OVC,OVC,0.31,WeatherDisplay:10.37,2013-04-09 17:19:00,
2013-04-09 13:24:00,46.5,39.0,30.00,WNW,297,2.0,8.0,75,0.00,OVC,OVC,0.31,WeatherDisplay:10.37,2013-04-09 17:24:00,
2013-04-09 13:29:00,46.7,39.2,30.00,NW,318,3.0,8.0,75,0.00,OVC,OVC,0.31,WeatherDisplay:10.37,2013-04-09 17:29:00,
2013-04-09 13:34:00,47.1,39.2,30.00,West,281,1.0,5.0,74,0.00,OVC,OVC,0.31,WeatherDisplay:10.37,2013-04-09 17:34:00,
2013-04-09 13:39:00,47.3,39.4,30.00,WNW,293,2.0,6.0,74,0.00,OVC,OVC,0.31,WeatherDisplay:10.37,2013-04-09 17:39:00,
2013-04-09 13:44:00,47.4,39.2,30.00,WNW,303,6.0,8.0,73,0.00,OVC,OVC,0.31,WeatherDisplay:10.37,2013-04-09 17:44:00,
2013-04-09 13:49:00,47.8,39.6,29.99,West,280,3.0,9.0,73,0.00,OVC,OVC,0.31,WeatherDisplay:10.37,2013-04-09 17:49:00,
2013-04-09 13:54:00,47.7,39.1,30.00,West,261,2.0,7.0,72,0.00,OVC,OVC,0.31,WeatherDisplay:10.37,2013-04-09 17:54:00,
2013-04-09 14:04:00,47.6,39.4,29.99,NNW,334,2.0,6.0,73,0.00,OVC,OVC,0.31,WeatherDisplay:10.37,2013-04-09 18:04:00,
2013-04-09 14:14:00,48.5,39.6,29.97,NW,311,1.0,6.0,71,0.00,OVC,OVC,0.31,WeatherDisplay:10.37,2013-04-09 18:14:00,
2013-04-09 14:19:00,49.3,39.6,29.97,WNW,296,2.0,6.0,69,0.00,OVC,OVC,0.31,WeatherDisplay:10.37,2013-04-09 18:19:00,
2013-04-09 14:24:00,49.3,39.6,29.98,West,275,1.0,5.0,69,0.00,OVC,OVC,0.31,WeatherDisplay:10.37,2013-04-09 18:24:00,
2013-04-09 14:29:00,48.7,39.0,29.97,WNW,286,2.0,7.0,69,0.00,OVC,OVC,0.31,WeatherDisplay:10.37,2013-04-09 18:29:00,
2013-04-09 14:39:00,48.9,39.2,29.97,WNW,291,0.0,5.0,69,0.00,OVC,OVC,0.31,WeatherDisplay:10.37,2013-04-09 18:39:00,
2013-04-09 14:44:00,49.5,39.4,29.97,NW,314,1.0,3.0,68,0.00,OVC,OVC,0.31,WeatherDisplay:10.37,2013-04-09 18:44:00,
2013-04-09 14:49:00,49.6,39.1,29.97,WNW,300,3.0,7.0,67,0.00,OVC,OVC,0.31,WeatherDisplay:10.37,2013-04-09 18:49:00,
2013-04-09 14:54:00,49.2,39.1,29.96,SW,227,1.0,4.0,68,0.00,OVC,OVC,0.31,WeatherDisplay:10.37,2013-04-09 18:54:00,
2013-04-09 14:59:00,49.9,39.4,29.96,SSW,209,1.0,4.0,67,0.00,OVC,OVC,0.31,WeatherDisplay:10.37,2013-04-09 18:59:00,
2013-04-09 15:04:00,49.5,39.4,29.97,SW,223,1.0,5.0,68,0.00,OVC,OVC,0.31,WeatherDisplay:10.37,2013-04-09 19:04:00,
2013-04-09 15:14:00,47.2,39.4,29.97,South,185,3.0,6.0,74,0.00,OVC,OVC,0.31,WeatherDisplay:10.37,2013-04-09 19:14:00,
2013-04-09 15:19:00,46.7,39.5,29.97,SSW,202,2.0,7.0,76,0.00,OVC,OVC,0.31,WeatherDisplay:10.37,2013-04-09 19:19:00,
2013-04-09 15:24:00,46.7,39.2,29.96,SSW,199,2.0,5.0,75,0.00,OVC,OVC,0.31,WeatherDisplay:10.37,2013-04-09 19:24:00,
2013-04-09 15:39:00,47.1,39.2,29.96,South,191,3.0,7.0,74,0.00,OVC,OVC,0.31,WeatherDisplay:10.37,2013-04-09 19:39:00,
2013-04-09 15:44:00,47.2,39.6,29.95,SSW,192,3.0,7.0,75,0.00,OVC,OVC,0.31,WeatherDisplay:10.37,2013-04-09 19:44:00,
2013-04-09 15:49:00,47.0,39.5,29.95,SW,217,3.0,13.0,75,0.00,OVC,OVC,0.31,WeatherDisplay:10.37,2013-04-09 19:49:00,
2013-04-09 15:54:00,47.2,39.7,29.95,SW,220,5.0,10.0,75,0.00,OVC,OVC,0.31,WeatherDisplay:10.37,2013-04-09 19:54:00,
2013-04-09 15:59:00,46.8,39.6,29.95,SW,221,1.0,5.0,76,0.00,OVC,OVC,0.31,WeatherDisplay:10.37,2013-04-09 19:59:00,
2013-04-09 16:04:00,46.7,39.5,29.95,WSW,239,6.0,12.0,76,0.00,OVC,OVC,0.31,WeatherDisplay:10.37,2013-04-09 20:04:00,
2013-04-09 16:14:00,47.3,39.7,29.95,SSW,208,2.0,6.0,75,0.00,BKN,OVC,0.31,WeatherDisplay:10.37,2013-04-09 20:14:00,
2013-04-09 16:24:00,46.9,39.4,29.97,SSW,210,2.0,8.0,75,0.00,BKN,OVC,0.31,WeatherDisplay:10.37,2013-04-09 20:24:00,
2013-04-09 16:34:00,46.6,39.5,29.97,South,185,3.0,9.0,76,0.00,BKN,OVC,0.31,WeatherDisplay:10.37,2013-04-09 20:34:00,
2013-04-09 16:39:00,46.5,39.7,29.98,SSW,200,2.0,10.0,77,0.00,BKN,OVC,0.31,WeatherDisplay:10.37,2013-04-09 20:39:00,
2013-04-09 16:44:00,46.5,39.7,29.98,SSW,206,3.0,7.0,77,0.00,BKN,OVC,0.31,WeatherDisplay:10.37,2013-04-09 20:44:00,
2013-04-09 16:54:00,46.2,39.8,29.99,SW,217,3.0,8.0,78,0.00,BKN,OVC,0.31,WeatherDisplay:10.37,2013-04-09 20:54:00,
2013-04-09 16:59:00,45.8,39.3,29.99,SSW,202,2.0,6.0,78,0.00,BKN,OVC,0.31,WeatherDisplay:10.37,2013-04-09 20:59:00,
2013-04-09 17:09:00,45.5,39.7,29.99,SSW,200,1.0,8.0,80,0.00,BKN,OVC,0.31,WeatherDisplay:10.37,2013-04-09 21:09:00,
2013-04-09 17:19:00,45.5,39.7,29.98,SW,215,1.0,4.0,80,0.00,OVC,OVC,0.31,WeatherDisplay:10.37,2013-04-09 21:19:00,
2013-04-09 17:24:00,45.9,39.7,29.98,SW,224,3.0,6.0,79,0.00,OVC,OVC,0.31,WeatherDisplay:10.37,2013-04-09 21:24:00,
2013-04-09 17:29:00,46.0,39.8,29.98,SSW,197,0.0,8.0,79,0.00,OVC,OVC,0.31,WeatherDisplay:10.37,2013-04-09 21:29:00,
2013-04-09 17:39:00,46.3,39.9,29.97,WSW,247,1.0,6.0,78,0.00,OVC,OVC,0.31,WeatherDisplay:10.37,2013-04-09 21:39:00,
2013-04-09 17:44:00,46.4,39.9,29.97,WSW,240,2.0,9.0,78,0.00,OVC,OVC,0.31,WeatherDisplay:10.37,2013-04-09 21:44:00,
2013-04-09 17:49:00,46.2,39.8,29.97,West,266,0.0,9.0,78,0.00,OVC,OVC,0.31,WeatherDisplay:10.37,2013-04-09 21:49:00,
2013-04-09 17:54:00,46.1,39.9,29.97,WNW,285,1.0,3.0,79,0.00,OVC,OVC,0.31,WeatherDisplay:10.37,2013-04-09 21:54:00,
2013-04-09 18:04:00,46.0,39.9,29.97,WSW,239,2.0,6.0,79,0.00,OVC,OVC,0.31,WeatherDisplay:10.37,2013-04-09 22:04:00,
2013-04-09 18:14:00,45.8,39.7,29.97,SW,233,5.0,7.0,79,0.00,OVC,OVC,0.31,WeatherDisplay:10.37,2013-04-09 22:14:00,
2013-04-09 18:19:00,45.8,40.0,29.97,West,263,5.0,12.0,80,0.00,OVC,OVC,0.31,WeatherDisplay:10.37,2013-04-09 22:19:00,
2013-04-09 18:24:00,45.7,39.9,29.97,WSW,244,1.0,4.0,80,0.00,OVC,OVC,0.31,WeatherDisplay:10.37,2013-04-09 22:24:00,
2013-04-09 18:34:00,45.7,39.9,29.97,West,259,1.0,6.0,80,0.00,OVC,OVC,0.31,WeatherDisplay:10.37,2013-04-09 22:34:00,
2013-04-09 18:39:00,45.6,39.8,29.97,WSW,250,2.0,5.0,80,0.00,OVC,OVC,0.31,WeatherDisplay:10.37,2013-04-09 22:39:00,
2013-04-09 18:44:00,45.5,39.7,29.97,SW,232,2.0,4.0,80,0.00,OVC,OVC,0.31,WeatherDisplay:10.37,2013-04-09 22:44:00,
2013-04-09 18:54:00,45.1,39.6,29.97,WSW,247,3.0,8.0,81,0.00,OVC,OVC,0.31,WeatherDisplay:10.37,2013-04-09 22:54:00,
2013-04-09 18:59:00,45.1,39.6,29.97,WSW,250,2.0,5.0,81,0.00,OVC,OVC,0.31,WeatherDisplay:10.37,2013-04-09 22:59:00,
2013-04-09 19:04:00,45.1,39.6,29.97,WSW,238,2.0,6.0,81,0.00,OVC,OVC,0.31,WeatherDisplay:10.37,2013-04-09 23:04:00,
2013-04-09 19:09:00,45.1,39.6,29.97,SW,218,1.0,6.0,81,0.00,OVC,OVC,0.31,WeatherDisplay:10.37,2013-04-09 23:09:00,
2013-04-09 19:14:00,44.8,39.7,29.97,SW,215,0.0,5.0,82,0.00,OVC,OVC,0.31,WeatherDisplay:10.37,2013-04-09 23:14:00,
2013-04-09 19:19:00,44.6,39.8,29.97,SW,217,1.0,3.0,83,0.00,OVC,OVC,0.31,WeatherDisplay:10.37,2013-04-09 23:19:00,
2013-04-09 19:24:00,44.3,39.4,29.97,SW,227,1.0,3.0,83,0.00,OVC,OVC,0.31,WeatherDisplay:10.37,2013-04-09 23:24:00,
2013-04-09 19:29:00,44.0,39.5,29.97,SW,226,1.0,5.0,84,0.00,OVC,OVC,0.31,WeatherDisplay:10.37,2013-04-09 23:29:00,
2013-04-09 19:34:00,43.9,39.7,29.97,SW,214,1.0,6.0,85,0.00,OVC,OVC,0.31,WeatherDisplay:10.37,2013-04-09 23:34:00,
2013-04-09 19:39:00,43.7,39.5,29.97,SSW,209,0.0,2.0,85,0.00,OVC,OVC,0.31,WeatherDisplay:10.37,2013-04-09 23:39:00,
2013-04-09 19:44:00,43.4,39.2,29.97,SSW,213,1.0,5.0,85,0.00,OVC,OVC,0.31,WeatherDisplay:10.37,2013-04-09 23:44:00,
2013-04-09 19:49:00,43.4,39.5,29.97,SW,229,3.0,7.0,86,0.00,OVC,OVC,0.31,WeatherDisplay:10.37,2013-04-09 23:49:00,
2013-04-09 19:54:00,43.4,39.2,29.97,SW,232,1.0,4.0,85,0.00,OVC,OVC,0.31,WeatherDisplay:10.37,2013-04-09 23:54:00,
2013-04-09 19:59:00,43.3,39.4,29.97,SW,226,1.0,6.0,86,0.00,OVC,OVC,0.31,WeatherDisplay:10.37,2013-04-09 23:59:00,
2013-04-09 20:04:00,43.2,39.3,29.97,SW,236,0.0,3.0,86,0.00,OVC,OVC,0.31,WeatherDisplay:10.37,2013-04-10 00:04:00,
2013-04-09 20:09:00,43.2,39.3,29.97,WSW,245,1.0,5.0,86,0.00,OVC,OVC,0.31,WeatherDisplay:10.37,2013-04-10 00:09:00,
2013-04-09 20:14:00,43.1,39.5,29.97,SW,233,1.0,3.0,87,0.00,OVC,OVC,0.31,WeatherDisplay:10.37,2013-04-10 00:14:00,
2013-04-09 20:19:00,42.9,39.3,29.96,SW,221,1.0,2.0,87,0.00,OVC,OVC,0.31,WeatherDisplay:10.37,2013-04-10 00:19:00,
2013-04-09 20:24:00,43.0,39.4,29.96,SW,232,1.0,4.0,87,0.00,OVC,OVC,0.31,WeatherDisplay:10.37,2013-04-10 00:24:00,
2013-04-09 20:29:00,43.1,39.8,29.96,WSW,250,0.0,4.0,88,0.00,OVC,OVC,0.31,WeatherDisplay:10.37,2013-04-10 00:29:00,
2013-04-09 20:34:00,43.0,39.7,29.96,West,262,0.0,2.0,88,0.00,OVC,OVC,0.31,WeatherDisplay:10.37,2013-04-10 00:34:00,
2013-04-09 20:39:00,42.9,39.6,29.96,WSW,255,0.0,3.0,88,0.00,OVC,OVC,0.31,WeatherDisplay:10.37,2013-04-10 00:39:00,
2013-04-09 20:44:00,42.8,39.5,29.96,WSW,247,0.0,2.0,88,0.00,OVC,OVC,0.31,WeatherDisplay:10.37,2013-04-10 00:44:00,
2013-04-09 20:49:00,42.6,39.3,29.96,WNW,301,0.0,2.0,88,0.00,OVC,OVC,0.31,WeatherDisplay:10.37,2013-04-10 00:49:00,
2013-04-09 20:54:00,42.7,39.7,29.96,WNW,291,1.0,4.0,89,0.00,OVC,OVC,0.31,WeatherDisplay:10.37,2013-04-10 00:54:00,
2013-04-09 20:59:00,42.7,39.4,29.96,WSW,249,0.0,2.0,88,0.00,OVC,OVC,0.31,WeatherDisplay:10.37,2013-04-10 00:59:00,
2013-04-09 21:04:00,42.6,39.5,29.96,SW,233,1.0,4.0,89,0.00,OVC,OVC,0.31,WeatherDisplay:10.37,2013-04-10 01:04:00,
2013-04-09 21:14:00,42.6,39.5,29.95,SW,228,2.0,7.0,89,0.00,OVC,OVC,0.31,WeatherDisplay:10.37,2013-04-10 01:14:00,
2013-04-09 21:19:00,42.6,39.6,29.95,SW,232,1.0,7.0,89,0.00,OVC,OVC,0.31,WeatherDisplay:10.37,2013-04-10 01:19:00,
2013-04-09 21:24:00,42.6,39.3,29.96,WSW,240,1.0,5.0,88,0.00,OVC,OVC,0.31,WeatherDisplay:10.37,2013-04-10 01:24:00,
2013-04-09 21:29:00,42.7,39.7,29.95,WSW,245,1.0,3.0,89,0.00,OVC,OVC,0.31,WeatherDisplay:10.37,2013-04-10 01:29:00,
2013-04-09 21:34:00,42.7,39.4,29.96,WSW,244,0.0,5.0,88,0.00,OVC,OVC,0.31,WeatherDisplay:10.37,2013-04-10 01:34:00,
2013-04-09 21:39:00,42.7,39.7,29.95,SW,227,0.0,4.0,89,0.00,OVC,OVC,0.31,WeatherDisplay:10.37,2013-04-10 01:39:00,
2013-04-09 21:44:00,42.7,39.7,29.96,SW,231,1.0,3.0,89,0.00,OVC,OVC,0.31,WeatherDisplay:10.37,2013-04-10 01:44:00,
2013-04-09 21:49:00,42.6,39.6,29.96,WSW,258,1.0,4.0,89,0.00,OVC,OVC,0.31,WeatherDisplay:10.37,2013-04-10 01:49:00,
2013-04-09 21:54:00,42.6,39.6,29.96,WSW,256,2.0,4.0,89,0.00,OVC,OVC,0.31,WeatherDisplay:10.37,2013-04-10 01:54:00,
2013-04-09 21:59:00,42.6,39.6,29.95,West,263,1.0,3.0,89,0.00,OVC,OVC,0.31,WeatherDisplay:10.37,2013-04-10 01:59:00,
2013-04-09 22:04:00,42.6,39.3,29.95,West,272,1.0,4.0,88,0.00,OVC,OVC,0.31,WeatherDisplay:10.37,2013-04-10 02:04:00,
2013-04-09 22:09:00,42.3,39.3,29.96,West,263,0.0,4.0,89,0.00,OVC,OVC,0.31,WeatherDisplay:10.37,2013-04-10 02:09:00,
2013-04-09 22:14:00,42.1,39.4,29.96,WSW,251,1.0,4.0,90,0.00,OVC,OVC,0.31,WeatherDisplay:10.37,2013-04-10 02:14:00,
2013-04-09 22:19:00,42.2,39.5,29.95,West,271,1.0,3.0,90,0.00,OVC,OVC,0.31,WeatherDisplay:10.37,2013-04-10 02:19:00,
2013-04-09 22:24:00,42.2,39.5,29.95,West,279,1.0,3.0,90,0.00,BKN,OVC,0.31,WeatherDisplay:10.37,2013-04-10 02:24:00,
2013-04-09 22:29:00,41.8,38.8,29.96,NW,311,1.0,4.0,89,0.00,BKN,OVC,0.31,WeatherDisplay:10.37,2013-04-10 02:29:00,
2013-04-09 22:34:00,41.5,38.8,29.96,NW,318,1.0,3.0,90,0.00,BKN,OVC,0.31,WeatherDisplay:10.37,2013-04-10 02:34:00,
2013-04-09 22:39:00,41.6,39.2,29.96,NW,315,1.0,3.0,91,0.00,BKN,OVC,0.31,WeatherDisplay:10.37,2013-04-10 02:39:00,
2013-04-09 22:44:00,41.7,39.3,29.96,NW,311,0.0,3.0,91,0.00,BKN,OVC,0.31,WeatherDisplay:10.37,2013-04-10 02:44:00,
2013-04-09 22:49:00,41.9,39.5,29.95,WNW,292,0.0,2.0,91,0.00,BKN,OVC,0.31,WeatherDisplay:10.37,2013-04-10 02:49:00,
2013-04-09 22:54:00,41.7,39.3,29.95,SW,236,0.0,2.0,91,0.00,BKN,OVC,0.31,WeatherDisplay:10.37,2013-04-10 02:54:00,
2013-04-09 22:59:00,41.6,39.4,29.95,SW,234,0.0,2.0,92,0.00,BKN,OVC,0.31,WeatherDisplay:10.37,2013-04-10 02:59:00,
2013-04-09 23:04:00,41.8,39.6,29.94,WSW,252,1.0,4.0,92,0.00,BKN,OVC,0.31,WeatherDisplay:10.37,2013-04-10 03:04:00,
2013-04-09 23:09:00,42.2,39.7,29.94,WSW,258,0.0,2.0,91,0.00,BKN,OVC,0.31,WeatherDisplay:10.37,2013-04-10 03:09:00,
2013-04-09 23:14:00,42.2,39.8,29.94,West,264,0.0,3.0,91,0.00,BKN,OVC,0.31,WeatherDisplay:10.37,2013-04-10 03:14:00,
2013-04-09 23:19:00,42.2,39.5,29.93,WNW,285,0.0,2.0,90,0.00,BKN,OVC,0.31,WeatherDisplay:10.37,2013-04-10 03:19:00,
2013-04-09 23:24:00,41.9,39.4,29.93,WNW,284,0.0,2.0,91,0.00,BKN,OVC,0.31,WeatherDisplay:10.37,2013-04-10 03:24:00,
2013-04-09 23:29:00,41.5,39.1,29.93,West,277,0.0,2.0,91,0.00,BKN,OVC,0.31,WeatherDisplay:10.37,2013-04-10 03:29:00,
2013-04-09 23:34:00,41.3,38.9,29.93,WSW,258,0.0,2.0,91,0.00,BKN,OVC,0.31,WeatherDisplay:10.37,2013-04-10 03:34:00,
2013-04-09 23:39:00,41.0,38.5,29.93,WSW,253,1.0,2.0,91,0.00,BKN,OVC,0.31,WeatherDisplay:10.37,2013-04-10 03:39:00,
2013-04-09 23:44:00,40.8,38.7,29.93,WSW,244,1.0,2.0,92,0.00,BKN,OVC,0.31,WeatherDisplay:10.37,2013-04-10 03:44:00,
2013-04-09 23:49:00,41.0,38.9,29.93,WSW,247,1.0,2.0,92,0.00,BKN,OVC,0.31,WeatherDisplay:10.37,2013-04-10 03:49:00,
2013-04-09 23:54:00,41.3,39.1,29.93,West,275,0.0,3.0,92,0.00,BKN,OVC,0.31,WeatherDisplay:10.37,2013-04-10 03:54:00,
2013-04-09 23:59:00,41.3,39.2,29.93,WNW,296,0.0,1.0,92,0.00,RA,OVC,0.00,WeatherDisplay:10.37,2013-04-10 03:59:00,